createdAt,value
2022-09-11T10:15:53.848Z,691.88
2022-09-11T10:16:53.721Z,691.88
2022-09-11T10:17:53.687Z,675.00
2022-09-11T10:18:53.679Z,669.38
2022-09-11T10:19:53.663Z,663.75
2022-09-11T10:20:53.636Z,658.13
2022-09-11T10:21:53.630Z,669.38
2022-09-11T10:22:53.626Z,641.25
2022-09-11T10:23:53.591Z,646.88
2022-09-11T10:24:53.576Z,641.25
2022-09-11T10:26:55.338Z,641.25
2022-09-11T10:27:55.334Z,635.63
2022-09-11T10:28:55.293Z,630.00
2022-09-11T10:29:55.289Z,601.88
2022-09-11T10:33:36.840Z,590.63
2022-09-11T10:34:36.821Z,618.75
2022-09-11T10:35:36.796Z,686.25
2022-09-11T10:36:36.779Z,663.75
2022-09-11T10:37:36.786Z,579.38
2022-09-11T10:38:41.136Z,607.50
2022-09-11T10:39:36.782Z,545.63
2022-09-11T10:40:36.717Z,596.25
2022-09-11T10:41:36.713Z,613.13
2022-09-11T10:42:36.709Z,590.63
2022-09-11T10:43:36.685Z,630.00
2022-09-11T10:44:36.668Z,663.75
2022-09-11T10:45:36.662Z,568.13
2022-09-11T10:46:37.496Z,540.00
2022-09-11T10:47:36.629Z,573.75
2022-09-11T10:48:53.416Z,506.25
2022-09-11T11:05:09.534Z,624.38
2022-09-11T11:06:47.719Z,585.00
2022-09-11T11:07:47.712Z,590.63
2022-09-11T11:08:47.717Z,568.13
2022-09-11T11:13:17.282Z,590.63
2022-09-11T11:14:17.244Z,675.00
2022-09-11T11:15:17.229Z,630.00
2022-09-11T11:16:17.246Z,624.38
2022-09-11T11:17:17.198Z,658.13
2022-09-11T11:18:17.198Z,680.63
2022-09-11T11:19:17.168Z,573.75
2022-09-11T11:20:17.161Z,517.50
2022-09-11T11:21:17.148Z,393.75
2022-09-11T11:30:23.700Z,1400.63
2022-09-11T11:31:23.739Z,2328.75
2022-09-11T11:32:23.649Z,2486.25
2022-09-11T11:33:23.644Z,2688.75
2022-09-11T11:34:23.625Z,2053.13
2022-09-11T11:35:23.604Z,2171.25
2022-09-11T11:36:23.588Z,551.25
2022-09-11T11:38:42.117Z,2542.50
2022-09-11T11:39:42.066Z,2536.88
2022-09-11T11:40:42.000Z,2823.75
2022-09-11T11:41:41.997Z,2823.75
2022-09-11T11:42:41.979Z,2733.75
2022-09-11T11:43:41.969Z,2491.88
2022-09-11T11:44:41.953Z,2508.75
2022-09-11T11:45:41.959Z,2683.13
2022-09-11T11:46:41.913Z,2722.50
2022-09-11T11:47:41.924Z,2610.00
2022-09-11T11:48:41.928Z,2784.38
2022-09-11T11:49:41.875Z,2722.50
2022-09-11T11:50:49.737Z,2694.38
2022-09-11T11:51:41.845Z,2840.63
2022-09-11T11:52:41.836Z,2705.63
2022-09-11T11:53:41.833Z,2986.88
2022-09-11T11:54:41.807Z,3121.88
2022-09-11T11:55:41.788Z,2885.63
2022-09-11T11:56:41.782Z,2081.25
2022-09-11T11:57:41.761Z,984.38
2022-09-11T11:58:41.814Z,1591.88
2022-09-11T11:59:41.745Z,601.88
2022-09-11T12:00:41.723Z,585.00
2022-09-11T12:01:41.778Z,894.38
2022-09-11T12:02:41.703Z,556.88
2022-09-11T12:03:41.735Z,2677.50
2022-09-11T12:04:41.678Z,2497.50
2022-09-11T12:05:41.652Z,2480.63
2022-09-11T12:06:41.648Z,2480.63
2022-09-11T12:07:41.628Z,2553.75
2022-09-11T12:08:41.734Z,2728.13
2022-09-11T12:09:41.610Z,2908.13
2022-09-11T12:10:41.606Z,3031.88
2022-09-11T12:11:41.577Z,2930.63
2022-09-11T12:12:41.558Z,2885.63
2022-09-11T12:13:41.555Z,2829.38
2022-09-11T12:14:41.546Z,2851.88
2022-09-11T12:15:41.529Z,3155.63
2022-09-11T12:16:41.514Z,2638.13
2022-09-11T12:17:41.495Z,2902.50
2022-09-11T12:18:41.566Z,2885.63
2022-09-11T12:19:41.467Z,2919.38
2022-09-11T12:20:41.455Z,3015.00
2022-09-11T12:21:41.442Z,3065.63
2022-09-11T12:22:41.435Z,1164.38
2022-09-11T12:23:41.428Z,2964.38
2022-09-11T12:24:41.412Z,641.25
2022-09-11T12:28:15.898Z,2964.38
2022-09-11T12:29:15.878Z,2626.88
2022-09-11T12:30:15.871Z,1226.25
2022-09-11T12:31:15.910Z,2075.63
2022-09-11T12:32:15.846Z,2745.00
2022-09-11T12:33:15.837Z,2773.13
2022-09-11T12:34:15.819Z,2452.50
2022-09-11T12:35:15.798Z,2570.63
2022-09-11T12:36:15.795Z,2418.75
2022-09-11T12:37:15.778Z,2514.38
2022-09-11T12:38:15.784Z,793.13
2022-09-11T12:39:15.783Z,1226.25
2022-09-11T12:40:15.769Z,2480.63
2022-09-11T12:41:15.731Z,2469.38
2022-09-11T12:42:15.727Z,2626.88
2022-09-11T12:43:15.722Z,2705.63
2022-09-11T12:44:15.685Z,641.25
2022-09-11T12:45:15.683Z,1816.88
2022-09-11T12:46:15.662Z,1113.75
2022-09-11T12:47:15.661Z,2728.13
2022-09-11T12:48:15.662Z,2756.25
2022-09-11T12:49:22.587Z,3076.88
2022-09-11T12:50:15.612Z,2925.00
2022-09-11T12:51:15.612Z,2671.88
2022-09-11T12:52:15.598Z,2840.63
2022-09-11T12:53:15.589Z,2795.63
2022-09-11T12:54:15.574Z,720.00
2022-09-11T12:55:15.552Z,691.88
2022-09-11T12:57:04.928Z,731.25
2022-09-11T12:58:04.926Z,2508.75
2022-09-11T12:59:04.888Z,2812.50
2022-09-11T13:00:04.875Z,2885.63
2022-09-11T13:01:04.908Z,2846.25
2022-09-11T13:02:04.903Z,3054.38
2022-09-11T13:03:04.858Z,3144.38
2022-09-11T13:04:04.837Z,3195.00
2022-09-11T13:05:04.814Z,3110.63
2022-09-11T13:06:04.814Z,3200.63
2022-09-11T13:07:04.801Z,3161.25
2022-09-11T13:08:04.803Z,3037.50
2022-09-11T13:09:04.777Z,2756.25
2022-09-11T13:10:04.768Z,2700.00
2022-09-11T13:11:04.755Z,2615.63
2022-09-11T13:12:04.746Z,2598.75
2022-09-11T13:13:04.736Z,2739.38
2022-09-11T13:14:04.715Z,2998.13
2022-09-11T13:15:04.711Z,2773.13
2022-09-11T13:16:04.737Z,2587.50
2022-09-11T13:17:04.689Z,2756.25
2022-09-11T13:18:04.694Z,2778.75
2022-09-11T13:19:04.669Z,2688.75
2022-09-11T13:20:04.660Z,2671.88
2022-09-11T13:21:04.641Z,2553.75
2022-09-11T13:22:04.671Z,2536.88
2022-09-11T13:23:04.643Z,2581.88
2022-09-11T13:24:04.617Z,2722.50
2022-09-11T13:25:04.599Z,2677.50
2022-09-11T13:26:04.587Z,2716.88
2022-09-11T13:27:04.585Z,2576.25
2022-09-11T13:28:04.577Z,2559.38
2022-09-11T13:29:04.564Z,2565.00
2022-09-11T13:30:04.556Z,1822.50
2022-09-11T13:31:04.585Z,2598.75
2022-09-11T13:32:04.524Z,2570.63
2022-09-11T13:33:04.531Z,2205.00
2022-09-11T13:34:04.518Z,2278.13
2022-09-11T13:35:04.502Z,2694.38
2022-09-11T13:36:04.490Z,2615.63
2022-09-11T13:37:04.472Z,2475.00
2022-09-11T13:38:04.487Z,2536.88
2022-09-11T13:39:04.466Z,2475.00
2022-09-11T13:40:04.520Z,2773.13
2022-09-11T13:41:04.438Z,2610.00
2022-09-11T13:42:04.422Z,2649.38
2022-09-11T13:43:04.432Z,2902.50
2022-09-11T13:44:04.408Z,2728.13
2022-09-11T13:45:04.402Z,2700.00
2022-09-11T13:46:04.446Z,2576.25
2022-09-11T13:47:04.372Z,2491.88
2022-09-11T13:48:04.376Z,2491.88
2022-09-11T13:49:04.354Z,2531.25
2022-09-11T13:50:04.353Z,2632.50
2022-09-11T13:51:04.335Z,2677.50
2022-09-11T13:52:04.333Z,2542.50
2022-09-11T13:53:04.327Z,2610.00
2022-09-11T13:54:04.312Z,2694.38
2022-09-11T13:55:04.306Z,2694.38
2022-09-11T13:56:04.288Z,2761.88
2022-09-11T13:57:04.292Z,2767.50
2022-09-11T13:58:04.296Z,2812.50
2022-09-11T13:59:04.271Z,2846.25
2022-09-11T14:00:04.250Z,2711.25
2022-09-11T14:01:04.252Z,2677.50
2022-09-11T14:02:04.398Z,2542.50
2022-09-11T14:03:04.236Z,2491.88
2022-09-11T14:04:04.214Z,2424.38
2022-09-11T14:05:04.207Z,2413.13
2022-09-11T14:06:04.212Z,2480.63
2022-09-11T14:07:04.197Z,2441.25
2022-09-11T14:08:04.192Z,2385.00
2022-09-11T14:09:04.180Z,2396.25
2022-09-11T14:10:04.177Z,2221.88
2022-09-11T14:11:07.100Z,2160.00
2022-09-11T14:12:04.146Z,2233.13
2022-09-11T14:13:04.169Z,2131.88
2022-09-11T14:14:04.128Z,2092.50
2022-09-11T14:15:04.118Z,2115.00
2022-09-11T14:16:04.167Z,1996.88
2022-09-11T14:17:04.111Z,1861.88
2022-09-11T14:18:04.106Z,1816.88
2022-09-11T14:19:04.095Z,1783.13
2022-09-11T14:20:04.091Z,1766.25
2022-09-11T14:21:04.070Z,1738.13
2022-09-11T14:22:04.064Z,1704.38
2022-09-11T14:23:04.069Z,1676.25
2022-09-11T14:24:04.047Z,1738.13
2022-09-11T14:25:04.042Z,1738.13
2022-09-11T14:26:04.041Z,1659.38
2022-09-11T14:27:04.026Z,1642.50
2022-09-11T14:28:04.015Z,1642.50
2022-09-11T14:29:04.029Z,765.00
2022-09-11T14:30:04.012Z,787.50
2022-09-11T14:31:04.029Z,1344.38
2022-09-11T14:32:03.997Z,1535.63
2022-09-11T14:33:03.979Z,1558.13
2022-09-11T14:34:03.980Z,652.50
2022-09-11T14:35:03.961Z,770.63
2022-09-11T14:36:07.584Z,1732.50
2022-09-11T14:37:03.944Z,1912.50
2022-09-11T14:38:03.960Z,2081.25
2022-09-11T14:39:03.932Z,2176.88
2022-09-11T14:40:03.945Z,2131.88
2022-09-11T14:41:03.922Z,2137.50
2022-09-11T14:42:03.912Z,2098.13
2022-09-11T14:43:03.895Z,2193.75
2022-09-11T14:44:03.899Z,2115.00
2022-09-11T14:45:03.889Z,2019.38
2022-09-11T14:46:03.893Z,2008.13
2022-09-11T14:47:03.863Z,1951.88
2022-09-11T14:48:03.877Z,1940.63
2022-09-11T14:49:03.845Z,1867.50
2022-09-11T14:50:03.840Z,1597.50
2022-09-11T14:51:03.832Z,1625.63
2022-09-11T14:52:03.824Z,1665.00
2022-09-11T14:53:03.822Z,1901.25
2022-09-11T14:54:03.828Z,2041.88
2022-09-11T14:55:03.799Z,1800.00
2022-09-11T14:56:03.792Z,1760.63
2022-09-11T14:59:26.917Z,1569.38
2022-09-11T15:00:26.890Z,1794.38
2022-09-11T15:01:26.954Z,1923.75
2022-09-11T15:04:55.374Z,1265.63
2022-09-11T15:05:55.342Z,1248.75
2022-09-11T15:06:55.379Z,663.75
2022-09-11T15:07:55.337Z,568.13
2022-09-11T15:08:55.336Z,528.75
2022-09-11T15:09:55.315Z,517.50
2022-09-11T15:10:55.305Z,506.25
2022-09-11T15:11:55.286Z,500.63
2022-09-11T15:30:21.186Z,461.25
2022-09-11T16:17:46.942Z,348.75
2022-09-11T16:18:46.916Z,433.13
2022-09-11T16:19:46.926Z,607.50
2022-09-11T16:20:46.887Z,523.13
2022-09-11T16:21:46.876Z,376.88
2022-09-11T16:22:46.857Z,388.13
2022-09-11T16:23:51.138Z,371.25
